Time;durP1;ratioP1;P1;durP2;ratioP2;P2;SDS_P1;SDS_P2;PMS_P1;PMS_P2;Temp;Humidity;BMP_temperature;BMP_pressure;BME280_temperature;BME280_humidity;BME280_pressure;Samples;Min_cycle;Max_cycle;Signal;HPM_P1;HPM_P2
2021/06/06 00:00:24;;;;;;;;;9.00;9.00;;;;;24.34;47.11;102052.78;5002312;28;45340;-63
2021/06/06 00:02:51;;;;;;;;;10.33;10.33;;;;;24.33;46.76;102053.69;5033668;28;47395;-63
2021/06/06 00:05:17;;;;;;;;;10.00;9.67;;;;;24.33;47.00;102051.06;5001887;28;45321;-63
2021/06/06 00:07:43;;;;;;;;;6.00;5.33;;;;;24.32;46.76;102042.22;5000972;28;45411;-63
2021/06/06 00:10:09;;;;;;;;;8.33;8.33;;;;;24.31;46.67;102040.47;5001825;28;45248;-64
2021/06/06 00:12:35;;;;;;;;;11.00;8.00;;;;;24.32;46.53;102044.00;5001761;28;46185;-63
2021/06/06 00:15:05;;;;;;;;;8.00;8.00;;;;;24.31;46.68;102040.47;4984037;28;45338;-63
2021/06/06 00:17:30;;;;;;;;;9.33;9.00;;;;;24.31;46.98;102036.97;5000643;28;45239;-63
2021/06/06 00:19:56;;;;;;;;;8.00;8.00;;;;;24.30;46.77;102033.44;5001577;28;48900;-63
2021/06/06 00:22:21;;;;;;;;;9.33;9.33;;;;;24.30;46.79;102036.09;5001608;28;52999;-63
2021/06/06 00:24:46;;;;;;;;;8.00;8.00;;;;;24.30;47.22;102040.56;5001470;28;45419;-63
2021/06/06 00:27:12;;;;;;;;;8.00;8.00;;;;;24.29;46.40;102039.69;5001266;28;61545;-63
2021/06/06 00:29:37;;;;;;;;;8.00;7.00;;;;;24.29;46.61;102041.47;5001092;28;56352;-63
2021/06/06 00:32:03;;;;;;;;;8.67;7.67;;;;;24.28;46.73;102037.94;5000266;28;45988;-63
2021/06/06 00:34:29;;;;;;;;;10.33;10.33;;;;;24.27;46.27;102036.25;5001557;28;45237;-63
2021/06/06 00:36:55;;;;;;;;;9.33;8.33;;;;;24.27;47.17;102033.59;5016943;28;45323;-65
2021/06/06 00:39:20;;;;;;;;;8.67;8.67;;;;;24.27;46.62;102030.06;5001446;28;45549;-65
2021/06/06 00:41:47;;;;;;;;;7.33;7.33;;;;;24.26;46.59;102031.88;5001638;28;45569;-65
2021/06/06 00:44:13;;;;;;;;;7.00;7.00;;;;;24.26;46.62;102033.63;4999977;28;45521;-64
2021/06/06 00:46:39;;;;;;;;;9.33;9.33;;;;;24.26;46.46;102033.63;5001598;28;45347;-65
2021/06/06 00:49:06;;;;;;;;;10.00;8.67;;;;;24.26;46.98;102030.97;5001676;28;45607;-64
2021/06/06 00:51:40;;;;;;;;;7.67;7.67;;;;;24.24;46.79;102031.06;5000269;28;45260;-64
2021/06/06 00:54:11;;;;;;;;;7.33;6.67;;;;;24.23;46.76;102021.38;5001115;28;45242;-64
2021/06/06 00:56:37;;;;;;;;;7.33;7.33;;;;;24.23;46.69;102026.66;5001651;28;45411;-64
2021/06/06 00:59:02;;;;;;;;;7.00;7.00;;;;;24.23;46.70;102026.66;5003533;28;45474;-64
2021/06/06 01:01:28;;;;;;;;;7.33;7.33;;;;;24.21;46.37;102020.56;5003555;28;46057;-62
2021/06/06 01:03:56;;;;;;;;;7.67;7.67;;;;;24.23;46.46;102020.47;5019684;28;45340;-65
2021/06/06 01:06:38;;;;;;;;;7.00;7.00;;;;;24.21;46.66;102012.59;5004978;28;45300;-62
2021/06/06 01:09:05;;;;;;;;;9.33;8.33;;;;;24.21;46.68;102012.59;5004473;28;45470;-65
2021/06/06 01:11:59;;;;;;;;;8.00;8.00;;;;;24.21;46.93;102015.25;5004383;28;45264;-65
2021/06/06 01:14:31;;;;;;;;;8.00;7.00;;;;;24.20;46.95;102008.22;5003089;28;45424;-64
2021/06/06 01:17:18;;;;;;;;;8.33;8.33;;;;;24.20;46.88;102019.69;5004439;28;45785;-64
2021/06/06 01:19:49;;;;;;;;;10.33;8.00;;;;;24.19;46.43;102014.44;5004601;28;45437;-63
2021/06/06 01:22:24;;;;;;;;;8.00;8.00;;;;;24.19;46.60;102027.72;5002761;28;46926;-62
2021/06/06 01:25:24;;;;;;;;;8.33;7.00;;;;;24.18;46.21;102020.69;5004085;28;45234;-62
2021/06/06 01:28:18;;;;;;;;;9.00;7.67;;;;;24.17;46.36;102018.94;5004180;28;45455;-62
2021/06/06 01:30:49;;;;;;;;;7.67;7.33;;;;;24.17;46.50;102019.81;4996289;28;45421;-64
2021/06/06 01:33:19;;;;;;;;;7.00;7.00;;;;;24.17;46.55;102016.28;5002731;28;45289;-62
2021/06/06 01:35:51;;;;;;;;;8.00;8.00;;;;;24.16;46.13;102014.56;5019386;28;45355;-62
2021/06/06 01:38:24;;;;;;;;;7.00;7.00;;;;;24.16;46.39;102015.44;5003887;28;45339;-63
2021/06/06 01:40:53;;;;;;;;;8.00;8.00;;;;;24.16;46.39;102017.22;5002780;28;45475;-63
2021/06/06 01:43:24;;;;;;;;;7.00;7.00;;;;;24.16;46.35;102017.22;5002708;28;46198;-63
2021/06/06 01:46:03;;;;;;;;;7.33;7.33;;;;;24.15;46.34;102013.72;5019247;28;45494;-62
2021/06/06 01:48:30;;;;;;;;;8.67;6.67;;;;;24.15;46.70;102007.53;5004168;28;45296;-62
2021/06/06 01:51:03;;;;;;;;;8.00;7.33;;;;;24.14;46.46;102009.31;5004167;28;45375;-64
2021/06/06 01:53:29;;;;;;;;;6.33;6.33;;;;;24.14;46.68;102011.97;5019194;28;46262;-62
2021/06/06 01:56:00;;;;;;;;;7.00;7.00;;;;;24.14;46.08;102008.44;5002438;28;45698;-63
2021/06/06 01:58:26;;;;;;;;;7.67;7.00;;;;;24.13;46.59;102009.38;5004126;28;45451;-63
2021/06/06 02:00:59;;;;;;;;;6.33;6.33;;;;;24.13;46.58;102001.41;5002690;28;45463;-63
2021/06/06 02:03:25;;;;;;;;;4.67;4.67;;;;;24.12;46.01;102002.38;5002376;28;46554;-62
2021/06/06 02:05:56;;;;;;;;;6.33;6.33;;;;;24.13;46.56;102001.41;5003400;28;53649;-64
2021/06/06 02:08:23;;;;;;;;;10.00;7.67;;;;;24.12;46.20;101999.72;5018766;28;45500;-64
2021/06/06 02:11:01;;;;;;;;;8.33;7.33;;;;;24.12;46.20;101999.72;5018345;28;45524;-62
2021/06/06 02:13:42;;;;;;;;;6.67;6.00;;;;;24.12;45.81;101997.06;5003454;28;45396;-64
2021/06/06 02:16:08;;;;;;;;;6.33;6.33;;;;;24.11;46.58;101995.34;5018286;28;45304;-64
2021/06/06 02:18:33;;;;;;;;;6.33;6.33;;;;;24.10;46.09;101991.81;5001934;28;49368;-64
2021/06/06 02:20:59;;;;;;;;;9.67;9.00;;;;;24.09;46.44;101984.78;5003842;28;45220;-64
2021/06/06 02:23:30;;;;;;;;;7.67;7.67;;;;;24.10;46.13;101990.94;5003275;28;46070;-62
2021/06/06 02:26:07;;;;;;;;;6.00;6.00;;;;;24.09;46.38;101981.25;5002113;28;45841;-64
2021/06/06 02:28:41;;;;;;;;;8.00;7.00;;;;;24.10;46.33;101977.69;5003260;28;45296;-64
2021/06/06 02:31:09;;;;;;;;;5.00;5.00;;;;;24.09;46.11;101975.97;5002185;28;45436;-64
2021/06/06 02:34:01;;;;;;;;;6.67;6.67;;;;;24.08;46.28;101975.09;5003094;28;45356;-64
2021/06/06 02:36:27;;;;;;;;;8.00;8.00;;;;;24.08;46.17;101976.88;5003049;28;45309;-63
2021/06/06 02:38:58;;;;;;;;;5.67;5.67;;;;;24.07;46.04;101973.34;5001765;28;45262;-63
2021/06/06 02:41:32;;;;;;;;;5.33;5.33;;;;;24.07;46.07;101970.69;5018446;28;45445;-63
2021/06/06 02:44:05;;;;;;;;;6.33;6.33;;;;;24.07;45.92;101969.84;5001487;28;47288;-63
2021/06/06 02:46:32;;;;;;;;;6.33;6.33;;;;;24.07;45.81;101961.91;5001645;28;45575;-63
2021/06/06 02:49:05;;;;;;;;;5.33;5.33;;;;;24.05;46.41;101964.59;5003122;28;45335;-63
2021/06/06 02:51:34;;;;;;;;;7.00;6.33;;;;;24.04;45.66;101961.09;4985496;28;45685;-63
2021/06/06 02:54:03;;;;;;;;;7.67;7.67;;;;;24.04;45.84;101957.59;5001251;28;47296;-63
2021/06/06 02:56:43;;;;;;;;;6.67;6.67;;;;;24.04;46.32;101961.09;5001694;28;45269;-63
2021/06/06 02:59:28;;;;;;;;;6.33;6.33;;;;;24.03;46.46;101962.00;5001671;28;45321;-63
2021/06/06 03:01:57;;;;;;;;;8.33;8.33;;;;;24.03;45.79;101958.50;5018062;28;45336;-63
2021/06/06 03:04:24;;;;;;;;;7.67;7.00;;;;;24.03;46.16;101959.38;5001431;28;45326;-63
2021/06/06 03:06:58;;;;;;;;;7.00;7.00;;;;;24.03;45.81;101953.22;5002651;28;45494;-63
2021/06/06 03:09:23;;;;;;;;;7.00;7.00;;;;;24.01;45.97;101955.91;5001317;28;45411;-63
2021/06/06 03:11:51;;;;;;;;;5.33;5.33;;;;;24.01;46.14;101953.25;5001498;28;45226;-63
2021/06/06 03:14:20;;;;;;;;;8.67;7.00;;;;;24.00;45.90;101948.88;5018166;28;46184;-63
2021/06/06 03:17:02;;;;;;;;;7.67;6.33;;;;;24.01;46.04;101952.41;5001394;28;45329;-63
2021/06/06 03:19:31;;;;;;;;;8.67;7.00;;;;;24.01;46.03;101947.09;5002652;28;45386;-63
2021/06/06 03:21:56;;;;;;;;;8.00;6.67;;;;;24.00;45.60;101940.06;5000193;28;45467;-63
2021/06/06 03:24:36;;;;;;;;;6.00;6.00;;;;;24.00;45.74;101948.88;5002078;28;51879;-63
2021/06/06 03:27:04;;;;;;;;;6.67;5.33;;;;;23.99;46.09;101949.78;5001305;28;45508;-63
2021/06/06 03:29:34;;;;;;;;;8.00;7.00;;;;;23.99;45.90;101947.13;5001083;28;45413;-64
2021/06/06 03:32:07;;;;;;;;;6.67;6.00;;;;;23.98;46.19;101950.72;5002868;28;45209;-63
2021/06/06 03:34:33;;;;;;;;;7.67;7.67;;;;;23.98;45.53;101950.72;5002338;28;45237;-65
2021/06/06 03:36:58;;;;;;;;;7.00;7.00;;;;;23.98;45.85;101948.06;5002214;28;45304;-63
2021/06/06 03:39:28;;;;;;;;;6.33;6.33;;;;;23.97;45.63;101943.72;5000385;28;53997;-63
2021/06/06 03:41:55;;;;;;;;;8.00;7.67;;;;;23.96;46.20;101944.63;5002603;28;45264;-63
2021/06/06 03:44:21;;;;;;;;;7.00;7.00;;;;;23.97;45.69;101945.47;5000627;28;48720;-63
2021/06/06 03:46:47;;;;;;;;;10.00;8.33;;;;;23.95;46.13;101942.88;5000882;28;45401;-63
2021/06/06 03:49:13;;;;;;;;;7.00;7.00;;;;;23.96;45.59;101941.97;5002304;28;45263;-63
2021/06/06 03:51:39;;;;;;;;;7.33;7.33;;;;;23.96;46.22;101946.38;5001323;28;45503;-63
2021/06/06 03:54:10;;;;;;;;;7.67;7.00;;;;;23.95;46.08;101939.34;5001573;28;46240;-63
2021/06/06 03:56:35;;;;;;;;;8.67;8.00;;;;;23.94;45.92;101938.50;5002157;28;45404;-63
2021/06/06 03:59:01;;;;;;;;;7.33;7.33;;;;;23.94;45.48;101937.63;5002048;28;45162;-63
2021/06/06 04:01:26;;;;;;;;;7.00;6.00;;;;;23.94;45.66;101937.63;5002117;28;45408;-63
2021/06/06 04:03:52;;;;;;;;;5.67;5.33;;;;;23.93;45.74;101936.75;5016436;28;67972;-63
2021/06/06 04:06:18;;;;;;;;;6.33;6.33;;;;;23.93;45.60;101936.75;5001955;28;45308;-63
2021/06/06 04:08:43;;;;;;;;;7.67;7.00;;;;;23.92;45.35;101935.03;5001394;28;45344;-63
2021/06/06 04:11:09;;;;;;;;;6.00;6.00;;;;;23.92;45.34;101939.47;5001962;28;45279;-63
2021/06/06 04:13:34;;;;;;;;;5.33;5.33;;;;;23.92;45.50;101937.69;5001793;28;47968;-63
2021/06/06 04:16:00;;;;;;;;;6.00;6.00;;;;;23.92;45.62;101939.47;5001798;28;45260;-63
2021/06/06 04:18:29;;;;;;;;;7.33;7.00;;;;;23.90;45.32;101937.72;5001631;28;45296;-63
2021/06/06 04:20:56;;;;;;;;;6.00;6.00;;;;;23.91;45.85;101930.66;5000824;28;45454;-63
2021/06/06 04:23:22;;;;;;;;;8.33;7.00;;;;;23.92;45.45;101939.47;5001361;28;45472;-63
2021/06/06 04:25:48;;;;;;;;;6.00;6.00;;;;;23.89;45.72;101938.69;5001790;28;45328;-64
2021/06/06 04:28:14;;;;;;;;;5.00;5.00;;;;;23.90;45.47;101939.53;5001726;28;45236;-63
2021/06/06 04:30:39;;;;;;;;;7.00;7.00;;;;;23.90;45.31;101942.19;5000525;28;45636;-63
2021/06/06 04:33:08;;;;;;;;;7.00;6.33;;;;;23.90;45.73;101944.81;5002161;28;46108;-63
2021/06/06 04:35:36;;;;;;;;;7.00;7.00;;;;;23.90;45.44;101944.81;5004977;28;45412;-63
2021/06/06 04:38:02;;;;;;;;;9.33;7.00;;;;;23.89;45.95;101951.06;5004720;28;45224;-63
2021/06/06 04:40:27;;;;;;;;;5.33;5.33;;;;;23.89;45.29;101943.97;5003904;28;45622;-63
2021/06/06 04:42:52;;;;;;;;;6.67;6.00;;;;;23.88;45.34;101947.56;5004759;28;45356;-63
2021/06/06 04:45:18;;;;;;;;;7.33;6.00;;;;;23.89;45.61;101949.28;5003180;28;59831;-63
2021/06/06 04:47:43;;;;;;;;;6.67;6.33;;;;;23.89;45.71;101951.06;5004986;28;45665;-64
2021/06/06 04:50:11;;;;;;;;;5.00;5.00;;;;;23.89;45.35;101951.06;5005051;28;45255;-63
2021/06/06 04:52:37;;;;;;;;;6.00;6.00;;;;;23.87;45.38;101951.13;5004701;28;45311;-63
2021/06/06 04:55:12;;;;;;;;;5.33;5.33;;;;;23.88;45.36;101960.81;5004493;28;45323;-63
2021/06/06 04:57:37;;;;;;;;;5.00;5.00;;;;;23.88;45.21;101954.63;5004791;28;45403;-63
2021/06/06 05:00:09;;;;;;;;;3.33;3.33;;;;;23.88;45.69;101954.63;5004583;28;56264;-63
2021/06/06 05:02:34;;;;;;;;;6.00;5.33;;;;;23.87;45.76;101952.91;5019973;28;45355;-63
2021/06/06 05:04:59;;;;;;;;;6.00;6.00;;;;;23.88;45.79;101951.97;5004201;28;65043;-63
2021/06/06 05:07:25;;;;;;;;;4.33;4.33;;;;;23.88;45.60;101946.66;5004978;28;45268;-63
2021/06/06 05:09:50;;;;;;;;;4.00;3.00;;;;;23.87;45.86;101952.91;5004590;28;45375;-63
2021/06/06 05:12:16;;;;;;;;;6.00;6.00;;;;;23.87;45.46;101944.94;5004458;28;46815;-63
2021/06/06 05:14:41;;;;;;;;;5.00;5.00;;;;;23.87;45.53;101947.59;5004728;28;45241;-63
2021/06/06 05:17:07;;;;;;;;;6.67;6.67;;;;;23.87;45.29;101947.59;5003868;28;45306;-63
2021/06/06 05:19:33;;;;;;;;;5.33;5.33;;;;;23.87;45.69;101943.16;5004746;28;45471;-63
2021/06/06 05:21:58;;;;;;;;;5.67;5.67;;;;;23.87;45.57;101942.28;5004339;28;45823;-63
2021/06/06 05:24:24;;;;;;;;;7.00;5.00;;;;;23.87;45.19;101952.91;5003190;28;45410;-63
2021/06/06 05:26:49;;;;;;;;;5.00;5.00;;;;;23.87;45.40;101942.28;5004544;28;45340;-63
2021/06/06 05:29:15;;;;;;;;;5.00;5.00;;;;;23.87;45.59;101937.00;5003381;28;45540;-63
2021/06/06 05:31:41;;;;;;;;;6.33;6.33;;;;;23.87;45.58;101948.47;5003451;28;45598;-62
2021/06/06 05:34:06;;;;;;;;;7.00;7.00;;;;;23.86;45.26;101941.44;5004503;28;45427;-63
2021/06/06 05:36:32;;;;;;;;;6.00;6.00;;;;;23.86;45.04;101944.09;5003914;28;47509;-63
2021/06/06 05:38:57;;;;;;;;;4.67;4.67;;;;;23.86;45.47;101949.41;5004215;28;45308;-62
2021/06/06 05:41:22;;;;;;;;;5.00;5.00;;;;;23.86;45.55;101946.75;5019183;28;46391;-63
2021/06/06 05:43:48;;;;;;;;;4.67;4.67;;;;;23.86;45.15;101952.03;5004009;28;45482;-63
2021/06/06 05:46:17;;;;;;;;;7.00;7.00;;;;;23.87;45.63;101945.81;5002822;28;46028;-64
2021/06/06 05:48:43;;;;;;;;;7.00;6.00;;;;;23.86;44.93;101945.88;5019702;28;45522;-63
2021/06/06 05:51:09;;;;;;;;;6.00;6.00;;;;;23.87;45.67;101950.25;5003679;28;46764;-63
2021/06/06 05:53:35;;;;;;;;;5.33;5.33;;;;;23.87;44.93;101952.91;5003764;28;45455;-64
2021/06/06 05:56:01;;;;;;;;;5.00;5.00;;;;;23.87;44.92;101950.25;5004069;28;45336;-63
2021/06/06 05:58:26;;;;;;;;;6.33;4.33;;;;;23.86;44.93;101952.03;5004145;28;45218;-63
2021/06/06 06:00:52;;;;;;;;;6.00;6.00;;;;;23.87;44.92;101955.53;5002154;28;54765;-63
2021/06/06 06:03:17;;;;;;;;;5.00;5.00;;;;;23.87;45.46;101958.19;5003679;28;45245;-63
2021/06/06 06:05:43;;;;;;;;;7.00;7.00;;;;;23.87;45.09;101953.78;5003854;28;45381;-63
2021/06/06 06:08:22;;;;;;;;;5.00;5.00;;;;;23.88;44.96;101962.56;5003870;28;45245;-63
2021/06/06 06:10:48;;;;;;;;;5.67;5.33;;;;;23.87;44.98;101958.19;5003399;28;46087;-63
2021/06/06 06:13:16;;;;;;;;;4.67;4.67;;;;;23.87;45.35;101960.84;5003524;28;45284;-63
2021/06/06 06:15:42;;;;;;;;;6.00;6.00;;;;;23.87;45.43;101955.53;5003871;28;45386;-64
2021/06/06 06:18:09;;;;;;;;;4.67;4.67;;;;;23.87;45.34;101958.19;5003794;28;45241;-63
2021/06/06 06:20:34;;;;;;;;;5.00;5.00;;;;;23.87;44.80;101964.38;5002297;28;47063;-64
2021/06/06 06:22:59;;;;;;;;;5.00;5.00;;;;;23.87;45.12;101964.38;5003327;28;45253;-63
2021/06/06 06:25:25;;;;;;;;;4.33;4.33;;;;;23.87;45.42;101963.50;5002944;28;51062;-63
2021/06/06 06:27:50;;;;;;;;;5.00;5.00;;;;;23.88;44.98;101962.56;5002194;28;45568;-63
2021/06/06 06:30:21;;;;;;;;;4.67;4.67;;;;;23.87;45.02;101959.06;5002793;28;61324;-63
2021/06/06 06:32:46;;;;;;;;;3.33;3.33;;;;;23.87;44.83;101959.06;5001883;28;45265;-62
2021/06/06 06:35:11;;;;;;;;;5.00;5.00;;;;;23.87;45.03;101966.16;5002377;28;63149;-64
2021/06/06 06:37:37;;;;;;;;;4.67;4.00;;;;;23.88;44.78;101966.13;5002946;28;45276;-64
2021/06/06 06:40:06;;;;;;;;;4.00;4.00;;;;;23.87;45.41;101974.09;5002801;28;45375;-63
2021/06/06 06:42:31;;;;;;;;;5.00;5.00;;;;;23.88;44.92;101973.19;5002955;28;45471;-63
2021/06/06 06:44:56;;;;;;;;;4.00;4.00;;;;;23.88;45.20;101975.84;5002288;28;51579;-64
2021/06/06 06:47:22;;;;;;;;;7.00;6.33;;;;;23.87;45.79;101961.72;4999070;28;47430;-64
2021/06/06 06:49:47;;;;;;;;;8.00;8.00;;;;;23.88;45.35;101973.19;4999413;28;47222;-63
2021/06/06 06:52:13;;;;;;;;;8.00;7.67;;;;;23.88;45.85;101973.19;5014902;28;45501;-63
2021/06/06 06:54:38;;;;;;;;;5.00;5.00;;;;;23.88;45.46;101967.88;5000316;28;45426;-64
2021/06/06 06:57:04;;;;;;;;;7.00;5.67;;;;;23.88;45.92;101971.41;5002250;28;45399;-64
2021/06/06 06:59:29;;;;;;;;;6.67;6.00;;;;;23.89;45.48;101970.50;5001132;28;48243;-64
2021/06/06 07:01:56;;;;;;;;;6.00;5.00;;;;;23.89;46.02;101973.16;5003258;28;45556;-63
2021/06/06 07:04:21;;;;;;;;;6.33;6.33;;;;;23.89;45.79;101969.63;5003548;28;45227;-63
2021/06/06 07:06:51;;;;;;;;;7.00;7.00;;;;;23.90;46.18;101980.13;5001049;28;45346;-64
2021/06/06 07:09:17;;;;;;;;;5.33;4.33;;;;;23.90;46.30;101976.63;5000378;28;45510;-63
2021/06/06 07:11:42;;;;;;;;;5.00;5.00;;;;;23.90;45.84;101981.94;5000685;28;45333;-63
2021/06/06 07:14:08;;;;;;;;;6.00;6.00;;;;;23.90;46.09;101974.00;5000944;28;45288;-63
2021/06/06 07:16:33;;;;;;;;;5.67;5.67;;;;;23.90;45.76;101974.00;5017410;28;45337;-63
2021/06/06 07:18:58;;;;;;;;;6.00;6.00;;;;;23.90;45.90;101974.84;4995470;28;46012;-63
2021/06/06 07:21:24;;;;;;;;;4.33;4.33;;;;;23.93;45.63;101973.88;5015043;28;45771;-63
2021/06/06 07:23:50;;;;;;;;;48.00;36.25;;;;;23.92;45.85;101972.16;5000803;28;45459;-63
2021/06/06 07:26:25;;;;;;;;;81.50;63.75;;;;;23.93;45.84;101976.53;5002188;28;45466;-63
2021/06/06 07:28:50;;;;;;;;;30.33;26.67;;;;;23.94;45.76;101967.66;5001849;28;45586;-63
2021/06/06 07:31:16;;;;;;;;;10.33;10.00;;;;;23.96;45.94;101978.19;5002091;28;45245;-63
2021/06/06 07:33:43;;;;;;;;;9.33;7.00;;;;;23.98;45.74;101984.34;5002419;28;45275;-63
2021/06/06 07:36:14;;;;;;;;;12.33;7.33;;;;;24.00;45.32;101982.50;5002618;28;45225;-62
2021/06/06 07:38:40;;;;;;;;;32.67;28.00;;;;;24.01;45.96;101979.75;5000120;28;47303;-62
2021/06/06 07:41:07;;;;;;;;;8.00;7.67;;;;;24.03;45.73;101974.41;5002133;28;45371;-63
2021/06/06 07:43:33;;;;;;;;;8.00;8.00;;;;;24.04;45.97;101973.50;5002057;28;45256;-63
2021/06/06 07:45:59;;;;;;;;;39.00;31.00;;;;;24.05;45.78;101970.78;5001900;28;45515;-63
2021/06/06 07:48:24;;;;;;;;;67.25;50.25;;;;;24.09;45.47;101975.97;5001400;28;46140;-63
2021/06/06 07:50:51;;;;;;;;;23.00;17.33;;;;;24.11;45.14;101972.31;5001700;28;50692;-64
2021/06/06 07:53:18;;;;;;;;;16.33;13.00;;;;;24.13;45.61;101972.25;5002018;28;45419;-64
2021/06/06 07:55:44;;;;;;;;;39.67;29.67;;;;;24.14;45.48;101974.84;5001019;28;45662;-63
2021/06/06 07:58:10;;;;;;;;;11.67;9.67;;;;;24.16;45.25;101980.09;5000285;28;45625;-63
2021/06/06 08:00:39;;;;;;;;;41.67;31.67;;;;;24.17;45.00;101980.03;5001699;28;45354;-62
2021/06/06 08:03:05;;;;;;;;;17.67;17.67;;;;;24.19;45.48;101975.53;5002007;28;45359;-63
2021/06/06 08:05:31;;;;;;;;;9.33;8.33;;;;;24.21;45.20;101978.13;5000188;28;45272;-63
2021/06/06 08:07:56;;;;;;;;;10.33;9.00;;;;;24.23;45.02;101976.28;5016594;28;46323;-63
2021/06/06 08:10:24;;;;;;;;;10.33;10.33;;;;;24.25;44.95;101974.44;5004844;28;45255;-63
2021/06/06 08:12:50;;;;;;;;;7.67;7.67;;;;;24.27;44.74;101975.25;5005474;28;45369;-62
2021/06/06 08:15:17;;;;;;;;;25.33;21.00;;;;;24.29;45.06;101969.88;5005206;28;45320;-63
2021/06/06 08:17:42;;;;;;;;;29.00;25.67;;;;;24.29;45.06;101973.34;5005036;28;45465;-63
2021/06/06 08:20:12;;;;;;;;;10.00;10.00;;;;;24.31;45.04;101974.16;5004815;28;45320;-64
2021/06/06 08:22:37;;;;;;;;;6.00;6.00;;;;;24.32;44.98;101962.63;5003909;28;45360;-62
2021/06/06 08:25:07;;;;;;;;;20.00;17.67;;;;;24.34;45.12;101968.75;5003699;28;45278;-62
2021/06/06 08:27:34;;;;;;;;;7.00;7.00;;;;;24.36;45.13;101966.00;5005088;28;46287;-62
2021/06/06 08:29:59;;;;;;;;;5.33;5.00;;;;;24.37;44.63;101967.75;5004767;28;45272;-62
2021/06/06 08:32:24;;;;;;;;;13.00;10.67;;;;;24.39;45.04;101968.56;5004834;28;52746;-62
2021/06/06 08:34:50;;;;;;;;;7.00;6.33;;;;;24.39;44.73;101968.56;5004748;28;45558;-63
2021/06/06 08:37:15;;;;;;;;;17.00;15.00;;;;;24.41;44.52;101963.19;5020151;28;46227;-63
2021/06/06 08:39:41;;;;;;;;;11.67;10.67;;;;;24.41;44.61;101964.03;5004398;28;45255;-64
2021/06/06 08:42:21;;;;;;;;;7.00;7.00;;;;;24.42;44.83;101959.63;5020466;28;45482;-63
2021/06/06 08:45:13;;;;;;;;;9.00;9.00;;;;;24.42;44.43;101949.84;5020157;28;45516;-63
2021/06/06 08:47:39;;;;;;;;;40.67;28.33;;;;;24.41;44.67;101956.09;5004557;28;46273;-62
2021/06/06 08:50:11;;;;;;;;;11.67;11.00;;;;;24.41;44.38;101952.59;5004734;28;45371;-62
2021/06/06 08:52:45;;;;;;;;;12.33;9.33;;;;;24.41;44.63;101957.91;5004626;28;45398;-62
2021/06/06 08:55:25;;;;;;;;;7.00;7.00;;;;;24.40;44.68;101958.81;5004796;28;45500;-61
2021/06/06 08:57:55;;;;;;;;;7.00;7.00;;;;;24.39;45.00;101957.94;5019887;28;46860;-62
2021/06/06 09:00:31;;;;;;;;;10.00;9.67;;;;;24.38;44.73;101953.56;5003154;28;45614;-62
2021/06/06 09:03:02;;;;;;;;;10.33;8.33;;;;;24.37;44.56;101954.47;5003233;28;45419;-62
2021/06/06 09:05:36;;;;;;;;;7.00;7.00;;;;;24.37;44.79;101948.31;4987103;28;45534;-62
2021/06/06 09:08:04;;;;;;;;;6.67;6.33;;;;;24.35;44.47;101951.06;5019234;28;46942;-62
2021/06/06 09:10:34;;;;;;;;;5.67;5.67;;;;;24.35;44.49;101953.72;5002603;28;45290;-63
2021/06/06 09:13:02;;;;;;;;;7.33;7.33;;;;;24.34;44.48;101950.19;5019579;28;45357;-62
2021/06/06 09:15:28;;;;;;;;;6.33;6.00;;;;;24.34;43.98;101947.53;5004721;28;45339;-62
2021/06/06 09:17:57;;;;;;;;;6.00;5.33;;;;;24.34;44.38;101951.97;5004169;28;45344;-62
2021/06/06 09:20:28;;;;;;;;;9.33;8.00;;;;;24.33;44.26;101945.78;5004011;28;45281;-63
2021/06/06 09:23:03;;;;;;;;;7.33;5.00;;;;;24.33;44.58;101951.09;5004132;28;45272;-63
2021/06/06 09:25:36;;;;;;;;;7.00;7.00;;;;;24.32;44.44;101945.88;5004396;28;45149;-63
2021/06/06 09:28:23;;;;;;;;;7.33;6.67;;;;;24.30;44.41;101945.91;5003922;28;45420;-63
2021/06/06 09:31:03;;;;;;;;;6.67;6.67;;;;;24.31;44.59;101944.13;5003913;28;45290;-63
2021/06/06 09:33:33;;;;;;;;;7.00;7.00;;;;;24.29;44.45;101946.84;5004051;28;45347;-62
2021/06/06 09:36:02;;;;;;;;;5.00;5.00;;;;;24.30;44.31;101947.72;5002921;28;45471;-63
2021/06/06 09:38:30;;;;;;;;;5.67;5.67;;;;;24.30;44.65;101945.06;5006828;28;45407;-62
2021/06/06 09:41:09;;;;;;;;;6.33;6.33;;;;;24.30;44.66;101948.56;5002483;28;45282;-64
2021/06/06 09:43:35;;;;;;;;;6.33;6.33;;;;;24.29;44.28;101952.13;5004200;28;45329;-63
2021/06/06 09:46:12;;;;;;;;;7.00;7.00;;;;;24.29;44.53;101952.13;5003320;28;50092;-63
2021/06/06 09:48:43;;;;;;;;;6.67;6.00;;;;;24.30;44.47;101951.22;5003864;28;46249;-63
2021/06/06 09:51:11;;;;;;;;;7.00;6.67;;;;;24.31;44.70;101952.09;5003555;28;45273;-63
2021/06/06 09:53:39;;;;;;;;;6.67;5.33;;;;;24.30;44.43;101955.69;5003439;28;45496;-62
2021/06/06 09:56:26;;;;;;;;;5.33;5.33;;;;;24.30;44.45;101953.88;5003676;28;45324;-62
2021/06/06 09:58:53;;;;;;;;;7.00;6.00;;;;;24.30;44.37;101956.53;5018752;28;46323;-62
2021/06/06 10:01:31;;;;;;;;;7.00;6.00;;;;;24.31;44.09;101952.94;5003578;28;45293;-63
2021/06/06 10:03:58;;;;;;;;;6.33;6.33;;;;;24.31;44.21;101962.72;5002572;28;45364;-62
2021/06/06 10:06:36;;;;;;;;;5.00;5.00;;;;;24.31;44.02;101952.94;5003983;28;45381;-62
2021/06/06 10:09:04;;;;;;;;;6.00;5.00;;;;;24.32;44.25;101957.31;5003165;28;45312;-61
2021/06/06 10:11:36;;;;;;;;;8.67;7.67;;;;;24.32;44.35;101957.31;5003389;28;45237;-61
2021/06/06 10:14:02;;;;;;;;;6.67;4.33;;;;;24.32;44.59;101956.47;5002196;28;45246;-60
2021/06/06 10:16:36;;;;;;;;;6.00;6.00;;;;;24.33;44.53;101950.25;5003552;28;45251;-62
2021/06/06 10:19:05;;;;;;;;;6.00;6.00;;;;;24.32;44.73;101948.53;5003219;28;46026;-61
2021/06/06 10:21:33;;;;;;;;;5.00;5.00;;;;;24.32;44.64;101962.63;5003117;28;45413;-61
2021/06/06 10:24:04;;;;;;;;;8.00;5.33;;;;;24.32;44.08;101957.31;5001432;28;45505;-61
2021/06/06 10:26:34;;;;;;;;;5.00;5.00;;;;;24.33;44.35;101955.56;5003175;28;45348;-63
2021/06/06 10:29:10;;;;;;;;;4.33;4.33;;;;;24.32;44.54;101953.81;5001611;28;46633;-61
2021/06/06 10:31:41;;;;;;;;;6.67;6.00;;;;;24.32;44.13;101954.69;5017306;28;45231;-61
2021/06/06 10:34:33;;;;;;;;;5.00;5.00;;;;;24.33;44.35;101955.56;5003153;28;45389;-61
2021/06/06 10:37:00;;;;;;;;;5.00;5.00;;;;;24.33;44.45;101953.75;5018746;28;45351;-61
2021/06/06 10:39:29;;;;;;;;;5.67;5.67;;;;;24.33;43.99;101958.22;5001763;28;46487;-61
2021/06/06 10:41:58;;;;;;;;;5.67;5.33;;;;;24.32;44.24;101951.19;5001650;28;45428;-61
2021/06/06 10:44:39;;;;;;;;;4.67;4.67;;;;;24.31;44.37;101942.34;5002959;28;45244;-61
2021/06/06 10:47:13;;;;;;;;;2.33;2.33;;;;;24.31;44.61;101942.34;5018763;28;45281;-61
2021/06/06 10:49:51;;;;;;;;;7.00;5.00;;;;;24.31;44.41;101941.50;5001573;28;45287;-61
2021/06/06 10:52:37;;;;;;;;;6.67;5.00;;;;;24.31;43.87;101947.63;5018115;28;45274;-62
2021/06/06 10:55:27;;;;;;;;;5.33;5.33;;;;;24.30;44.22;101943.25;5001493;28;45465;-61
2021/06/06 10:57:52;;;;;;;;;5.67;5.67;;;;;24.30;44.45;101945.91;5002442;28;45447;-61
2021/06/06 11:00:35;;;;;;;;;7.67;6.00;;;;;24.30;44.53;101940.59;5000806;28;62120;-63
2021/06/06 11:03:03;;;;;;;;;5.67;5.00;;;;;24.31;44.93;101942.34;5001808;28;45527;-59
2021/06/06 11:05:53;;;;;;;;;4.33;3.33;;;;;24.31;44.42;101939.69;5015749;28;45515;-59
2021/06/06 11:08:27;;;;;;;;;7.33;6.00;;;;;24.31;45.16;101937.03;5017029;28;45355;-59
2021/06/06 11:10:57;;;;;;;;;5.33;5.33;;;;;24.31;45.37;101942.34;4999952;28;46322;-59
2021/06/06 11:13:48;;;;;;;;;10.67;8.67;;;;;24.31;45.34;101926.41;5001472;28;45494;-60
2021/06/06 11:16:16;;;;;;;;;7.33;7.00;;;;;24.32;45.33;101933.44;4998827;28;45359;-60
2021/06/06 11:18:58;;;;;;;;;7.33;7.33;;;;;24.32;45.87;101927.31;5001758;28;45387;-61
2021/06/06 11:21:49;;;;;;;;;10.00;9.00;;;;;24.33;45.92;101923.72;5002219;28;46252;-60
2021/06/06 11:24:44;;;;;;;;;9.67;9.67;;;;;24.34;45.92;101928.94;5002038;28;45415;-60
2021/06/06 11:27:09;;;;;;;;;13.33;12.00;;;;;24.34;46.48;101923.66;5002378;28;45326;-60
2021/06/06 11:29:47;;;;;;;;;13.00;13.00;;;;;24.36;46.68;101920.91;5001127;28;45356;-60
2021/06/06 11:32:17;;;;;;;;;14.67;13.33;;;;;24.36;46.46;101920.91;5000715;28;47303;-59
2021/06/06 11:34:46;;;;;;;;;13.00;13.00;;;;;24.37;46.49;101916.50;5001034;28;45226;-60